Latest Weather Observations for Essendon Airport

IDV60901

Issued at 9:11 am EST Sunday 21 April 2024 (issued every 10 minutes, with the page automatically refreshed every 10 minutes)

About weather observations | Map of Melbourne area stations | Latest observations for Melbourne area | Other Formats
Station Details ID: 086038 Name: ESSENDON AIRPORT Lat: -37.73 Lon: 144.91 Height: 78.4 m
Data from the previous 72 hours. | See also: Recent months at Essendon Airport
Date/Time
EST
Temp
°C
App
Temp
°C
Dew
Point
°C
Rel
Hum
%
Delta-T
°C
Wind Press
QNH
hPa
Press
MSL
hPa
Rain since
9am
mm
Dir  Spd
km/h
Gust
km/h
Spd
kts
Gust
kts
21/09:00am 13.0 11.5 9.3 78 1.9 WSW 7 9 4 5 1031.5 1031.4 0.0
21/08:30am 12.6 11.4 10.3 86 1.2 NNW 7 7 4 4 1031.2 1031.1 0.0
21/08:00am 11.9 10.9 10.3 90 0.8 NNW 6 9 3 5 1031.3 1031.2 0.0
21/07:30am 11.6 10.3 9.9 89 0.9 N 7 11 4 6 1030.7 1030.6 0.0
21/07:00am 11.2 9.9 10.0 92 0.6 NW 7 9 4 5 1030.8 1030.7 0.0
21/06:30am 11.2 10.9 10.1 93 0.6 S 2 6 1 3 1030.5 1030.4 0.0
21/06:00am 11.1 11.2 10.2 94 0.5 CALM 0 0 0 0 1030.5 1030.4 0.0
21/05:30am 10.8 9.0 9.6 92 0.6 N 9 11 5 6 1029.9 1029.8 0.0
21/05:00am 11.3 10.0 9.9 91 0.7 N 7 9 4 5 1029.9 1029.8 0.0
21/04:30am 11.3 10.0 10.0 92 0.7 NNE 7 7 4 4 1030.0 1029.9 0.0
21/04:00am 11.3 9.6 9.9 91 0.7 N 9 11 5 6 1029.9 1029.8 0.0
21/03:30am 11.3 10.9 9.9 91 0.7 NW 2 7 1 4 1030.2 1030.1 0.0
21/03:00am 11.2 11.3 10.1 93 0.6 CALM 0 0 0 0 1030.4 1030.3 0.0
21/02:30am 11.0 10.6 9.8 92 0.6 NW 2 6 1 3 1030.6 1030.5 0.0
21/02:00am 11.1 8.9 9.5 90 0.8 NW 11 11 6 6 1030.6 1030.5 0.0
21/01:30am 11.0 9.6 9.6 91 0.7 NW 7 9 4 5 1030.6 1030.5 0.0
21/01:00am 10.9 9.1 9.5 91 0.7 NW 9 11 5 6 1030.6 1030.5 0.0
21/12:30am 10.8 9.4 9.6 92 0.6 W 7 11 4 6 1030.7 1030.6 0.0
21/12:00am 11.1 9.4 9.7 91 0.7 W 9 13 5 7 1030.7 1030.6 0.0
 
Date/Time
EST
Temp
°C
App
Temp
°C
Dew
Point
°C
Rel
Hum
%
Delta-T
°C
Wind Press
QNH
hPa
Press
MSL
hPa
Rain since
9am
mm
Dir  Spd
km/h
Gust
km/h
Spd
kts
Gust
kts
20/11:30pm 11.3 9.6 9.9 91 0.7 WNW 9 11 5 6 1030.8 1030.7 0.0
20/11:00pm 11.3 10.0 10.0 92 0.7 NNW 7 9 4 5 1030.9 1030.8 0.0
20/10:30pm 11.2 10.4 9.8 91 0.7 NE 4 9 2 5 1031.0 1030.9 0.0
20/10:00pm 10.9 10.8 9.3 90 0.8 CALM 0 0 0 0 1031.0 1030.9 0.0
20/09:30pm 11.1 11.1 9.7 91 0.7 CALM 0 4 0 2 1031.2 1031.1 0.0
20/09:00pm 10.7 9.9 9.5 92 0.6 ESE 4 9 2 5 1031.1 1031.0 0.0
20/08:30pm 11.0 9.6 9.6 91 0.7 SSW 7 7 4 4 1031.0 1030.9 0.0
20/08:00pm 10.7 9.2 9.1 90 0.8 SSW 7 9 4 5 1031.1 1031.0 0.0
20/07:30pm 11.0 9.6 8.9 87 1.0 S 6 9 3 5 1031.0 1030.9 0.0
20/07:00pm 11.3 9.6 8.3 82 1.5 SSW 7 9 4 5 1031.0 1030.9 0.0
20/06:30pm 12.2 10.2 8.5 78 1.8 S 9 13 5 7 1030.8 1030.7 0.0
20/06:00pm 12.8 10.4 8.5 75 2.1 S 11 15 6 8 1030.7 1030.6 0.0
20/05:30pm 13.6 10.0 8.4 71 2.6 S 17 19 9 10 1030.4 1030.3 0.0
20/05:00pm 14.3 10.7 8.5 68 2.9 S 17 20 9 11 1030.2 1030.1 0.0
20/04:30pm 14.9 11.0 8.8 67 3.1 S 19 26 10 14 1029.8 1029.7 0.0
20/04:00pm 15.4 11.9 8.9 65 3.3 SSW 17 24 9 13 1029.6 1029.5 0.0
20/03:30pm 15.2 11.7 8.9 66 3.2 S 17 20 9 11 1029.6 1029.5 0.0
20/03:00pm 16.1 13.2 9.5 65 3.4 S 15 22 8 12 1029.6 1029.5 0.0
20/02:30pm 15.3 11.5 9.0 66 3.2 S 19 28 10 15 1029.8 1029.7 0.0
20/02:00pm 16.5 12.7 9.9 65 3.4 SSW 20 28 11 15 1029.9 1029.8 0.0
20/01:30pm 17.0 13.9 8.9 59 4.2 S 15 22 8 12 1029.9 1029.8 0.0
20/01:00pm 16.6 13.4 9.8 64 3.5 SSE 17 20 9 11 1030.4 1030.3 0.0
20/12:30pm 16.2 12.3 8.7 61 3.8 S 19 26 10 14 1030.6 1030.5 0.0
20/12:00pm 16.2 12.5 9.6 65 3.4 S 19 28 10 15 1030.9 1030.8 0.0
20/11:30am 15.7 12.3 10.7 72 2.7 S 19 26 10 14 1031.0 1030.9 0.0
20/11:00am 16.0 13.2 11.2 73 2.6 S 17 22 9 12 1031.0 1030.9 0.0
20/10:30am 15.5 12.8 11.7 78 2.1 S 17 20 9 11 1030.9 1030.8 0.0
20/10:00am 15.6 13.3 11.8 78 2.0 S 15 20 8 11 1030.9 1030.8 0.0
20/09:30am 14.8 13.7 11.9 83 1.6 S 9 15 5 8 1030.9 1030.8 0.0
20/09:00am 13.6 12.4 11.7 88 1.0 SW 9 13 5 7 1030.8 1030.7 0.0
20/08:30am 12.4 11.7 12.1 98 0.2 WNW 7 9 4 5 1030.5 1030.4 0.0
20/08:00am 11.0 10.0 11.0 100 0.0 NW 7 9 4 5 1030.0 1029.9 0.0
20/07:30am 9.6 7.8 9.6 100 0.0 WNW 9 11 5 6 1029.6 1029.5 0.0
20/07:00am 8.9 7.0 8.9 100 0.0 WNW 9 11 5 6 1029.2 1029.1 0.0
20/06:30am 8.9 7.3 8.9 100 0.0 WNW 7 9 4 5 1029.1 1029.0 0.0
20/06:00am 9.0 6.7 9.0 100 0.0 NW 11 11 6 6 1028.9 1028.8 0.0
20/05:30am 9.4 8.2 9.4 100 0.0 N 6 7 3 4 1028.8 1028.7 0.0
20/05:00am 8.7 8.0 8.7 100 0.0 N 2 6 1 3 1028.5 1028.4 0.0
20/04:30am 9.0 7.5 9.0 100 0.0 SSW 7 9 4 5 1028.1 1028.1 0.0
20/04:00am 10.0 9.7 10.0 100 0.0 SSW 2 6 1 3 1028.1 1028.1 0.0
20/03:30am 9.9 8.1 9.6 98 0.2 S 9 13 5 7 1028.2 1028.2 0.0
20/03:00am 10.6 9.1 10.4 99 0.1 S 9 13 5 7 1028.2 1028.2 0.0
20/02:30am 10.3 8.3 10.3 100 0.0 S 11 13 6 7 1028.1 1028.1 0.0
20/02:00am 9.4 7.6 9.4 100 0.0 S 9 11 5 6 1028.0 1028.0 0.0
20/01:30am 9.7 7.9 9.6 99 0.1 S 9 9 5 5 1028.1 1028.1 0.0
20/01:00am 10.5 9.0 10.5 100 0.0 S 9 11 5 6 1028.0 1028.0 0.0
20/12:30am 10.5 9.2 10.0 97 0.3 S 7 11 4 6 1027.8 1027.8 0.0
20/12:00am 11.2 11.0 10.6 96 0.3 SSW 2 6 1 3 1027.9 1027.9 0.0
 
Date/Time
EST
Temp
°C
App
Temp
°C
Dew
Point
°C
Rel
Hum
%
Delta-T
°C
Wind Press
QNH
hPa
Press
MSL
hPa
Rain since
9am
mm
Dir  Spd
km/h
Gust
km/h
Spd
kts
Gust
kts
19/11:30pm 11.9 11.0 10.8 93 0.6 SSE 6 9 3 5 1028.2 1028.2 0.0
19/11:00pm 11.8 10.7 10.7 93 0.6 S 7 11 4 6 1028.1 1028.1 0.0
19/10:30pm 12.6 10.9 11.2 91 0.7 SSE 11 15 6 8 1028.0 1028.0 0.0
19/10:00pm 13.1 11.0 11.0 87 1.1 SE 13 17 7 9 1028.1 1028.1 0.0
19/09:30pm 13.7 10.9 11.2 85 1.3 SE 17 22 9 12 1027.9 1027.9 0.0
19/09:00pm 13.7 11.3 11.4 86 1.2 SSE 15 20 8 11 1027.5 1027.5 0.0
19/08:30pm 14.2 11.4 11.4 83 1.5 S 17 24 9 13 1027.0 1027.0 0.0
19/08:00pm 14.6 11.9 11.6 82 1.6 S 17 26 9 14 1027.0 1027.0 0.0
19/07:30pm 15.2 11.9 11.6 79 1.9 SSE 20 30 11 16 1026.6 1026.6 0.0
19/07:00pm 15.7 12.6 12.1 79 2.0 S 20 30 11 16 1026.3 1026.3 0.0
19/06:30pm 15.7 12.6 11.7 77 2.2 S 19 30 10 16 1025.8 1025.8 0.0
19/06:00pm 15.6 12.9 11.6 77 2.2 S 17 20 9 11 1025.2 1025.2 0.0
19/05:30pm 16.0 12.6 12.6 80 1.9 S 22 30 12 16 1024.6 1024.6 0.0
19/05:00pm 16.8 13.5 11.7 72 2.8 S 20 28 11 15 1024.0 1024.0 0.0
19/04:30pm 16.8 13.3 12.1 74 2.6 S 22 32 12 17 1023.5 1023.5 0.0
19/04:00pm 17.8 14.3 12.3 70 3.0 S 22 33 12 18 1023.1 1023.1 0.0
19/03:30pm 17.3 13.4 12.2 72 2.8 S 24 32 13 17 1022.8 1022.7 0.0
19/03:00pm 17.9 14.9 13.6 76 2.4 S 22 32 12 17 1022.7 1022.6 0.0
19/02:30pm 16.7 13.9 13.2 80 2.0 S 20 28 11 15 1022.7 1022.6 0.0
19/02:00pm 16.4 12.7 12.8 79 2.0 S 24 30 13 16 1022.5 1022.4 0.0
19/01:30pm 16.8 13.7 12.1 74 2.6 S 20 30 11 16 1022.3 1022.2 0.0
19/01:00pm 15.7 12.4 11.7 77 2.2 SSE 20 28 11 15 1022.5 1022.4 0.0
19/12:30pm 15.0 12.0 12.0 82 1.6 SSE 19 28 10 15 1022.7 1022.6 0.0
19/12:00pm 14.8 10.6 11.2 79 1.9 S 24 37 13 20 1022.7 1022.6 0.0
19/11:30am 16.1 12.0 10.2 68 3.1 S 22 28 12 15 1022.4 1022.3 0.0
19/11:00am 16.1 12.1 10.4 69 3.0 S 22 30 12 16 1022.1 1022.0 0.0
19/10:30am 15.3 11.6 10.1 71 2.7 S 20 33 11 18 1021.9 1021.8 0.0
19/10:00am 15.4 11.3 10.2 71 2.7 S 22 30 12 16 1021.8 1021.7 0.0
19/09:30am 13.4 12.4 13.4 100 0.0 WSW 11 15 6 8 1021.4 1021.3 0.0
19/09:00am 12.5 10.1 12.5 100 0.0 WSW 17 22 9 12 1021.1 1021.0 3.6
19/08:30am 12.6 12.7 12.6 100 0.0 SW 4 9 2 5 1020.8 1020.7 3.4
19/08:00am 12.5 12.1 12.5 100 0.0 SW 6 9 3 5 1020.5 1020.4 3.4
19/07:56am 12.5 12.1 12.5 100 0.0 SSW 6 9 3 5 1020.4 1020.3 3.4
19/07:30am 11.9 10.8 11.9 100 0.0 SW 9 19 5 10 1020.0 1019.9 3.4
19/07:04am 11.7 9.8 11.7 100 0.0 SW 13 17 7 9 1019.4 1019.3 3.4
19/07:00am 11.7 9.8 11.7 100 0.0 SW 13 17 7 9 1019.5 1019.4 3.2
19/06:46am 11.6 8.3 11.6 100 0.0 WSW 20 28 11 15 1019.4 1019.3 3.2
19/06:30am 11.5 8.2 11.5 100 0.0 WSW 20 26 11 14 1019.1 1019.0 2.8
19/06:00am 11.5 9.1 11.5 100 0.0 WSW 15 19 8 10 1018.9 1018.8 2.2
19/05:30am 11.3 7.9 11.3 100 0.0 WSW 20 28 11 15 1018.4 1018.3 1.8
19/05:00am 11.4 8.2 11.4 100 0.0 WSW 19 24 10 13 1018.2 1018.1 1.4
19/04:30am 11.4 8.0 11.4 100 0.0 WSW 20 26 11 14 1017.9 1017.8 1.0
19/04:00am 11.7 8.1 11.7 100 0.0 SW 22 28 12 15 1017.7 1017.6 1.0
19/03:59am 11.7 8.1 11.7 100 0.0 SW 22 28 12 15 1017.7 1017.6 1.0
19/03:52am 11.9 8.3 11.9 100 0.0 SW 22 30 12 16 1017.7 1017.6 1.0
19/03:30am 12.0 9.4 12.0 100 0.0 WSW 17 22 9 12 1017.4 1017.3 1.0
19/03:00am 12.1 9.1 12.1 100 0.0 W 19 24 10 13 1017.4 1017.3 1.0
19/02:30am 12.4 9.9 12.4 100 0.0 W 17 20 9 11 1017.7 1017.6 0.8
19/02:00am 12.5 10.4 12.5 100 0.0 WSW 15 19 8 10 1017.7 1017.6 0.8
19/01:30am 12.4 10.3 12.4 100 0.0 WSW 15 20 8 11 1017.6 1017.5 0.8
19/01:02am 13.0 11.1 13.0 100 0.0 W 15 19 8 10 1017.5 1017.4 0.8
19/01:00am 13.1 11.2 13.1 100 0.0 W 15 19 8 10 1017.5 1017.4 0.8
19/12:30am 13.2 11.7 13.2 100 0.0 W 13 19 7 10 1017.5 1017.4 0.8
19/12:00am 13.2 11.7 13.2 100 0.0 W 13 17 7 9 1017.5 1017.4 0.8
 
Date/Time
EST
Temp
°C
App
Temp
°C
Dew
Point
°C
Rel
Hum
%
Delta-T
°C
Wind Press
QNH
hPa
Press
MSL
hPa
Rain since
9am
mm
Dir  Spd
km/h
Gust
km/h
Spd
kts
Gust
kts
18/11:48pm 13.3 11.5 13.3 100 0.0 W 15 19 8 10 1017.6 1017.5 0.8
18/11:32pm 13.4 10.6 13.2 99 0.1 W 20 30 11 16 1017.5 1017.4 0.8
18/11:31pm 13.5 10.7 13.3 99 0.1 W 20 30 11 16 1017.5 1017.4 0.8
18/11:30pm 13.5 10.7 13.2 98 0.2 W 20 30 11 16 1017.5 1017.4 0.8
18/11:11pm 13.9 11.6 13.0 94 0.5 W 17 22 9 12 1017.6 1017.5 0.8
18/11:00pm 13.7 11.3 12.8 94 0.5 W 17 22 9 12 1017.6 1017.5 0.8
18/10:30pm 13.5 11.8 12.6 94 0.5 WNW 13 19 7 10 1017.8 1017.7 0.8
18/10:00pm 13.3 12.6 13.3 100 0.0 NW 9 15 5 8 1017.9 1017.8 0.8
18/09:30pm 13.0 11.9 13.0 100 0.0 N 11 13 6 7 1017.9 1017.8 0.8
18/09:00pm 12.9 11.3 12.9 100 0.0 N 13 15 7 8 1017.9 1017.8 0.8
18/08:30pm 12.9 11.7 12.9 100 0.0 N 11 13 6 7 1017.9 1017.8 0.6
18/08:00pm 13.3 12.1 12.7 96 0.3 NNW 11 13 6 7 1018.0 1017.9 0.6
18/07:30pm 13.5 12.1 12.2 92 0.7 NW 11 15 6 8 1018.2 1018.1 0.6
18/07:00pm 14.0 12.1 11.7 86 1.2 NW 13 19 7 10 1018.3 1018.2 0.2
18/06:30pm 14.2 12.2 11.4 83 1.5 NNW 13 15 7 8 1018.1 1018.0 0.0
18/06:00pm 14.3 12.2 11.1 81 1.7 W 13 24 7 13 1018.2 1018.1 0.0
18/05:30pm 14.2 11.0 11.2 82 1.6 W 19 24 10 13 1018.3 1018.2 0.0
18/05:00pm 14.9 11.2 10.1 73 2.5 WSW 20 30 11 16 1018.4 1018.3 0.0
18/04:30pm 15.5 11.8 9.4 67 3.2 W 19 24 10 13 1018.3 1018.2 0.0
18/04:00pm 15.8 11.5 9.2 65 3.4 W 22 30 12 16 1018.5 1018.4 0.0
18/03:30pm 15.6 10.8 8.8 64 3.5 W 24 32 13 17 1018.6 1018.5 0.0
18/03:00pm 15.7 10.5 8.7 63 3.6 WSW 26 35 14 19 1018.7 1018.6 0.0
18/02:30pm 16.1 11.9 8.3 60 4.0 W 20 32 11 17 1018.8 1018.7 0.0
18/02:00pm 16.1 11.5 8.1 59 4.0 W 22 28 12 15 1019.2 1019.1 0.0
18/01:30pm 15.8 12.0 7.6 58 4.1 WNW 17 26 9 14 1019.6 1019.5 0.0
18/01:00pm 15.8 11.6 7.6 58 4.1 W 19 24 10 13 1020.1 1020.0 0.0
18/12:30pm 15.7 11.3 7.5 58 4.1 W 20 28 11 15 1020.7 1020.6 0.0
18/12:00pm 15.4 11.7 7.9 61 3.8 W 17 22 9 12 1021.2 1021.1 0.0
18/11:30am 14.8 10.8 8.1 64 3.4 WSW 19 28 10 15 1021.8 1021.7 0.0
18/11:00am 13.8 8.7 7.6 66 3.0 WSW 24 32 13 17 1022.0 1021.9 0.0
18/10:30am 14.6 8.7 7.6 63 3.5 WSW 28 33 15 18 1022.1 1022.0 0.0
18/10:00am 14.2 8.9 8.6 69 2.8 WSW 26 33 14 18 1022.3 1022.2 0.0
18/09:30am 13.6 10.1 10.8 83 1.5 WSW 20 26 11 14 1022.4 1022.3 0.0

Latest Capital City Observations: Canberra | Sydney | Melbourne | Brisbane | Adelaide | Perth | Hobart | Darwin

Other formats

Comma delimited format used in spreadsheet applications
http://www.bom.gov.au/fwo/IDV60901/IDV60901.95866.axf

JavaScript Object Notation format (JSON) in row-major order
http://www.bom.gov.au/fwo/IDV60901/IDV60901.95866.json

Data quality

Most of these data are generated automatically and are frequently updated. Quality checks on data are not normally performed. It is possible for incorrect values to appear. Refer to information at About Latest Weather Observations and please check the disclaimer before using these data.